ADDS METAR Data INFO
IDs: Format: Raw Decoded Include TAF

Data at: 0353 UTC 18 Oct 2017

KEHO 180345Z AUTO 04003KT 10SM CLR 08/06 A3033 RMK AO2 T00750064
KEHO 180325Z AUTO 03004KT 10SM CLR 07/07 A3033 RMK AO2 T00710065
KEHO 180305Z AUTO 04004KT 10SM CLR 08/07 A3033 RMK AO2 T00780065
KEHO 180245Z AUTO 03003KT 10SM CLR 08/07 A3033 RMK AO2 T00830068
KEHO 180225Z AUTO 00000KT 10SM CLR 08/07 A3032 RMK AO2 T00810067
KEHO 180205Z AUTO 05004KT 10SM CLR 09/07 A3032 RMK AO2 T00880070
KEHO 180145Z AUTO 04004KT 10SM CLR 09/07 A3031 RMK AO2 T00930071
KEHO 180125Z AUTO 05003KT 10SM CLR 10/07 A3031 RMK AO2 T00990070
KEHO 180105Z AUTO 00000KT 10SM CLR 10/07 A3031 RMK AO2 T01030074
KEHO 180045Z AUTO 00000KT 10SM CLR 11/07 A3031 RMK AO2 T01080072
KEHO 180025Z AUTO 00000KT 10SM CLR 12/06 A3031 RMK AO2 T01210060
KEHO 180005Z AUTO 00000KT 10SM CLR 13/05 A3030 RMK AO2 T01290054
KEHO 172345Z AUTO 00000KT 10SM CLR 14/05 A3029 RMK AO2 T01370049
KEHO 172325Z AUTO 00000KT 10SM CLR 14/05 A3029 RMK AO2 T01400046
KEHO 172305Z AUTO 00000KT 10SM CLR 15/04 A3028 RMK AO2 T01500041
KEHO 172245Z AUTO 00000KT 10SM CLR 16/04 A3028 RMK AO2 T01560041
KEHO 172225Z AUTO 00000KT 10SM CLR 16/04 A3028 RMK AO2 T01620040
KEHO 172205Z AUTO 07003KT 10SM CLR 17/04 A3028 RMK AO2 T01700038
KEHO 172145Z AUTO 08003KT 10SM CLR 18/04 A3027 RMK AO2 T01760036
KEHO 172125Z AUTO 07005KT 10SM CLR 18/04 A3027 RMK AO2 T01790035
KEHO 172105Z AUTO 10004KT 10SM CLR 18/03 A3028 RMK AO2 T01790029
KEHO 172045Z AUTO 03005KT 10SM CLR 18/03 A3028 RMK AO2 T01800029
KEHO 172025Z AUTO 00000KT 10SM CLR 18/03 A3029 RMK AO2 T01800029
KEHO 172005Z AUTO 05007KT 10SM CLR 18/03 A3029 RMK AO2 T01810029
KEHO 171945Z AUTO 01003KT 10SM CLR 18/03 A3029 RMK AO2 T01770026
KEHO 171925Z AUTO 06006KT 10SM CLR 18/03 A3030 RMK AO2 T01760026
KEHO 171905Z AUTO 02008KT 10SM CLR 18/03 A3030 RMK AO2 T01750026
KEHO 171845Z AUTO 04006KT 10SM CLR 17/03 A3031 RMK AO2 T01740030
KEHO 171825Z AUTO 04005KT 10SM CLR 17/03 A3031 RMK AO2 T01730025
KEHO 171805Z AUTO 05007KT 010V080 10SM CLR 17/03 A3032 RMK AO2 T01730026
KEHO 171745Z AUTO 00000KT 10SM CLR 17/02 A3033 RMK AO2 T01660022
KEHO 171725Z AUTO 08005KT 10SM CLR 17/02 A3034 RMK AO2 T01680024
KEHO 171705Z AUTO 04009KT 10SM CLR 16/03 A3035 RMK AO2 T01640034
KEHO 171645Z AUTO 04006KT 10SM CLR 16/03 A3036 RMK AO2 T01620034
KEHO 171625Z AUTO 05007KT 10SM CLR 16/03 A3037 RMK AO2 T01580033
KEHO 171605Z AUTO 07008KT 10SM CLR 15/03 A3038 RMK AO2 T01510030
KEHO 171545Z AUTO 08011G15KT 10SM CLR 15/03 A3038 RMK AO2 T01530032
KEHO 171525Z AUTO 03010KT 10SM CLR 15/03 A3038 RMK AO2 T01460031
KEHO 171505Z AUTO 07011KT 10SM CLR 15/03 A3038 RMK AO2 T01450033
KEHO 171445Z AUTO 06009KT 10SM CLR 14/04 A3038 RMK AO2 T01380037
KEHO 171425Z AUTO 04008KT 10SM CLR 13/04 A3038 RMK AO2 T01340043
KEHO 171405Z AUTO 04007KT 10SM CLR 13/05 A3037 RMK AO2 T01260048
KEHO 171345Z AUTO 03005KT 10SM CLR 12/05 A3038 RMK AO2 T01150048
KEHO 171325Z AUTO 02006KT 10SM CLR 10/04 A3037 RMK AO2 T01030043
KEHO 171305Z AUTO 02006KT 10SM CLR 09/04 A3036 RMK AO2 T00940041
KEHO 171245Z AUTO 04004KT 10SM CLR 08/04 A3036 RMK AO2 T00840043
KEHO 171225Z AUTO 03004KT 10SM CLR 08/04 A3035 RMK AO2 T00780036
KEHO 171205Z AUTO 02003KT 10SM CLR 07/03 A3034 RMK AO2 T00730031
KEHO 171145Z AUTO 01004KT 10SM CLR 07/03 A3033 RMK AO2 T00720030
KEHO 171125Z AUTO 01004KT 10SM CLR 07/03 A3033 RMK AO2 T00710031
KEHO 171105Z AUTO 02006KT 10SM CLR 07/03 A3032 RMK AO2 T00680032
KEHO 171045Z AUTO 02004KT 10SM CLR 07/03 A3032 RMK AO2 T00660033
KEHO 171025Z AUTO 02004KT 10SM CLR 07/04 A3031 RMK AO2 T00660035
KEHO 171005Z AUTO 03005KT 10SM CLR 07/03 A3031 RMK AO2 T00720032
KEHO 170945Z AUTO 02006KT 10SM CLR 08/03 A3030 RMK AO2 T00770032
KEHO 170925Z AUTO 01004KT 10SM CLR 08/03 A3029 RMK AO2 T00790032
KEHO 170905Z AUTO 36004KT 10SM CLR 08/03 A3029 RMK AO2 T00780034
KEHO 170845Z AUTO 01005KT 10SM CLR 08/03 A3028 RMK AO2 T00790034
KEHO 170825Z AUTO 01004KT 10SM CLR 08/04 A3028 RMK AO2 T00830035
KEHO 170805Z AUTO 36004KT 10SM CLR 08/04 A3028 RMK AO2 T00780035
KEHO 170745Z AUTO 01003KT 10SM CLR 08/04 A3027 RMK AO2 T00800035
KEHO 170725Z AUTO 02004KT 10SM CLR 08/04 A3028 RMK AO2 T00840035
KEHO 170705Z AUTO 01004KT 10SM CLR 09/04 A3028 RMK AO2 T00880035
KEHO 170645Z AUTO 36003KT 10SM CLR 09/04 A3028 RMK AO2 T00900035
KEHO 170625Z AUTO 36003KT 10SM CLR 09/04 A3027 RMK AO2 T00900035
KEHO 170605Z AUTO 36005KT 10SM CLR 09/04 A3027 RMK AO2 T00930035
KEHO 170545Z AUTO 01005KT 10SM CLR 10/04 A3027 RMK AO2 T00950036
KEHO 170525Z AUTO 36004KT 10SM CLR 10/04 A3028 RMK AO2 T00950036
KEHO 170505Z AUTO 35004KT 10SM CLR 10/04 A3028 RMK AO2 T00950037
KEHO 170445Z AUTO 01004KT 10SM CLR 10/04 A3027 RMK AO2 T01000038
KEHO 170425Z AUTO 01005KT 10SM CLR 10/04 A3027 RMK AO2 T01010040
KEHO 170405Z AUTO 01005KT 10SM CLR 11/04 A3027 RMK AO2 T01050039
KEHO 170345Z AUTO 01005KT 10SM CLR 11/04 A3027 RMK AO2 T01050040
KEHO 170325Z AUTO 36005KT 10SM CLR 11/04 A3027 RMK AO2 T01100040
KEHO 170305Z AUTO 01004KT 10SM CLR 11/04 A3027 RMK AO2 T01100042
KEHO 170245Z AUTO 01005KT 10SM CLR 11/05 A3027 RMK AO2 T01100045
KEHO 170225Z AUTO 01005KT 10SM CLR 11/05 A3027 RMK AO2 T01140046
KEHO 170205Z AUTO 36005KT 10SM CLR 11/05 A3026 RMK AO2 T01140048
KEHO 170145Z AUTO 02006KT 10SM CLR 12/05 A3025 RMK AO2 T01180047
KEHO 170125Z AUTO 36004KT 10SM CLR 12/05 A3024 RMK AO2 T01160050
KEHO 170105Z AUTO 02003KT 10SM CLR 12/05 A3023 RMK AO2 T01200050
KEHO 170045Z AUTO 36005KT 10SM CLR 13/05 A3022 RMK AO2 T01290047
KEHO 170025Z AUTO 01005KT 10SM CLR 13/05 A3021 RMK AO2 T01320049
KEHO 170005Z AUTO 36006KT 10SM CLR 14/05 A3020 RMK AO2 T01350051
KEHO 162345Z AUTO 36004KT 10SM CLR 14/05 A3019 RMK AO2 T01400051
KEHO 162325Z AUTO 36005KT 10SM CLR 15/05 A3018 RMK AO2 T01460049
KEHO 162305Z AUTO 01007KT 10SM CLR 15/05 A3017 RMK AO2 T01500047
KEHO 162245Z AUTO 02009KT 10SM CLR 16/04 A3016 RMK AO2 T01570043
KEHO 162225Z AUTO 02010G16KT 10SM CLR 16/05 A3015 RMK AO2 T01630050
KEHO 162205Z AUTO 02010G17KT 10SM CLR 17/05 A3014 RMK AO2 T01710051
KEHO 162145Z AUTO 01012G17KT 10SM CLR 18/06 A3012 RMK AO2 T01800059
KEHO 162125Z AUTO 02013G16KT 10SM CLR 18/06 A3012 RMK AO2 T01840059
KEHO 162105Z AUTO 01011G20KT 10SM CLR 19/06 A3011 RMK AO2 T01880058
KEHO 162045Z AUTO 35012G15KT 10SM CLR 19/05 A3010 RMK AO2 T01920054
KEHO 162025Z AUTO 35011G17KT 10SM CLR 20/05 A3011 RMK AO2 T01960050
KEHO 162005Z AUTO 02012G17KT 10SM CLR 19/06 A3010 RMK AO2 T01920063
KEHO 161945Z AUTO 02013G18KT 10SM CLR 20/07 A3009 RMK AO2 T01970069
KEHO 161925Z AUTO 03011G14KT 10SM CLR 20/09 A3009 RMK AO2 T02040085
KEHO 161905Z AUTO 03011G14KT 10SM CLR 20/08 A3009 RMK AO2 T02010082
KEHO 161845Z AUTO 03011G14KT 10SM CLR 21/10 A3009 RMK AO2 T02050098
KEHO 161825Z AUTO 05008G14KT 10SM CLR 20/10 A3010 RMK AO2 T02030099
KEHO 161805Z AUTO 01007KT 10SM CLR 19/10 A3011 RMK AO2 T01940103
KEHO 161745Z AUTO 36009KT 10SM SCT036 19/11 A3011 RMK AO2 T01850105
KEHO 161725Z AUTO 34009KT 10SM BKN034 19/10 A3011 RMK AO2 T01880102
KEHO 161705Z AUTO 01005KT 10SM BKN034 20/13 A3011 RMK AO2 T01950125
KEHO 161645Z AUTO 34005KT 10SM SCT027 BKN032 19/13 A3011 RMK AO2 T01920126
KEHO 161625Z AUTO 03004KT 10SM BKN027 20/13 A3011 RMK AO2 T01960130
KEHO 161605Z AUTO 35004KT 10SM CLR 20/13 A3011 RMK AO2 T01950132